Time;durP1;ratioP1;P1;durP2;ratioP2;P2;SDS_P1;SDS_P2;PMS_P1;PMS_P2;Temp;Humidity;BMP_temperature;BMP_pressure;BME280_temperature;BME280_humidity;BME280_pressure;Samples;Min_cycle;Max_cycle;Signal;HPM_P1;HPM_P2
2024/01/19 00:01:21;;;;;;;32.90;20.60;;;;;;;3.14;100.00;98438.96;104828;1256;72998;-58
2024/01/19 00:03:49;;;;;;;34.00;20.30;;;;;;;3.14;100.00;98446.77;104846;1254;60521;-56
2024/01/19 00:06:16;;;;;;;32.40;19.20;;;;;;;3.12;100.00;98448.42;104776;1256;61140;-57
2024/01/19 00:08:44;;;;;;;39.00;22.20;;;;;;;3.10;100.00;98450.98;104935;1259;73906;-54
2024/01/19 00:11:15;;;;;;;34.50;18.80;;;;;;;3.09;100.00;98450.64;104966;1257;68380;-56
2024/01/19 00:13:43;;;;;;;33.20;19.00;;;;;;;3.08;100.00;98451.40;104784;1254;73246;-57
2024/01/19 00:16:10;;;;;;;32.20;18.00;;;;;;;3.08;100.00;98457.59;104703;1256;60480;-55
2024/01/19 00:18:38;;;;;;;30.40;17.30;;;;;;;3.09;100.00;98457.92;104837;1259;60534;-56
2024/01/19 00:21:05;;;;;;;31.90;18.20;;;;;;;3.10;100.00;98454.52;104923;1256;72680;-55
2024/01/19 00:23:32;;;;;;;34.00;19.50;;;;;;;3.11;100.00;98455.73;104683;1260;67690;-57
2024/01/19 00:26:00;;;;;;;34.60;20.10;;;;;;;3.11;100.00;98453.07;104914;1256;72641;-56
2024/01/19 00:28:27;;;;;;;36.30;21.30;;;;;;;3.11;100.00;98449.16;104872;1256;60537;-56
2024/01/19 00:30:55;;;;;;;36.40;21.00;;;;;;;3.12;100.00;98452.16;105052;1259;60345;-57
2024/01/19 00:33:22;;;;;;;38.20;22.60;;;;;;;3.12;100.00;98454.10;104792;1254;74000;-56
2024/01/19 00:35:50;;;;;;;38.10;21.20;;;;;;;3.11;100.00;98459.09;109024;1255;66721;-57
2024/01/19 00:38:17;;;;;;;39.10;20.30;;;;;;;3.11;100.00;98458.92;108398;1254;71348;-55
2024/01/19 00:40:45;;;;;;;32.30;19.40;;;;;;;3.11;100.00;98455.38;104854;1259;61014;-54
2024/01/19 00:43:12;;;;;;;40.70;20.40;;;;;;;3.11;100.00;98456.08;104896;1254;60540;-56
2024/01/19 00:45:40;;;;;;;35.20;18.60;;;;;;;3.11;100.00;98460.16;105083;1254;72601;-55
2024/01/19 00:48:07;;;;;;;36.70;19.10;;;;;;;3.12;100.00;98459.42;104884;1257;66722;-58
2024/01/19 00:50:35;;;;;;;33.50;18.20;;;;;;;3.12;100.00;98464.38;104970;1254;72769;-56
2024/01/19 00:53:02;;;;;;;37.40;20.20;;;;;;;3.13;100.00;98464.70;104797;1256;60549;-56
2024/01/19 00:55:30;;;;;;;34.30;19.40;;;;;;;3.14;100.00;98464.13;104855;1255;128870;-56
2024/01/19 00:58:54;;;;;;;36.10;19.60;;;;;;;3.17;100.00;98543.43;101741;1297;600265;-58
2024/01/19 01:01:22;;;;;;;41.70;22.70;;;;;;;3.15;100.00;98550.95;104103;1268;59349;-55
2024/01/19 01:03:49;;;;;;;42.00;24.10;;;;;;;3.14;100.00;98540.20;108168;1267;60041;-55
2024/01/19 01:06:17;;;;;;;37.90;22.40;;;;;;;3.13;100.00;98534.02;108101;1267;70731;-57
2024/01/19 01:08:44;;;;;;;37.70;20.20;;;;;;;3.11;100.00;98536.37;104493;1267;65789;-58
2024/01/19 01:11:11;;;;;;;36.60;20.00;;;;;;;3.11;100.00;98536.21;103984;1270;71027;-58
2024/01/19 01:13:39;;;;;;;36.10;19.00;;;;;;;3.10;100.00;98526.50;104084;1265;174383;-57
2024/01/19 01:16:06;;;;;;;40.00;21.00;;;;;;;3.09;100.00;98527.06;103935;1266;60103;-56
2024/01/19 01:18:34;;;;;;;34.70;20.00;;;;;;;3.09;100.00;98531.85;104070;1272;74529;-56
2024/01/19 01:21:02;;;;;;;39.70;20.50;;;;;;;3.09;100.00;98530.95;107920;1265;65811;-58
2024/01/19 01:23:29;;;;;;;39.80;22.10;;;;;;;3.09;100.00;98528.29;104151;1267;71200;-56
2024/01/19 01:25:56;;;;;;;42.20;22.60;;;;;;;3.08;100.00;98529.73;104160;1267;60350;-55
2024/01/19 01:28:24;;;;;;;40.20;23.40;;;;;;;3.08;100.00;98537.90;104060;1266;60085;-55
2024/01/19 01:30:51;;;;;;;44.60;25.30;;;;;;;3.07;100.00;98537.73;104043;1271;73427;-55
2024/01/19 01:33:18;;;;;;;42.40;23.70;;;;;;;3.06;100.00;98537.11;103949;1268;67079;-56
2024/01/19 01:35:46;;;;;;;50.80;26.40;;;;;;;3.03;100.00;98541.09;104311;1270;70635;-55
2024/01/19 01:38:13;;;;;;;49.60;24.90;;;;;;;3.02;100.00;98544.50;104072;1266;59656;-57
2024/01/19 01:40:41;;;;;;;44.80;24.50;;;;;;;3.00;100.00;98546.50;104130;1266;60047;-55
2024/01/19 01:43:08;;;;;;;48.60;24.10;;;;;;;3.00;100.00;98548.66;104168;1267;71861;-56
2024/01/19 01:45:36;;;;;;;48.10;24.30;;;;;;;2.99;100.00;98549.37;104115;1270;65850;-54
2024/01/19 01:48:03;;;;;;;53.60;26.40;;;;;;;3.00;100.00;98552.35;104243;1266;73091;-55
2024/01/19 01:50:31;;;;;;;50.80;26.20;;;;;;;3.02;100.00;98554.25;104522;1265;62167;-55
2024/01/19 01:52:59;;;;;;;53.40;27.70;;;;;;;3.03;100.00;98557.21;104086;1269;59662;-58
2024/01/19 01:55:26;;;;;;;46.20;25.10;;;;;;;3.04;100.00;98559.67;104189;1267;74408;-55
2024/01/19 01:57:53;;;;;;;52.30;27.60;;;;;;;3.04;100.00;98556.50;104222;1270;67585;-55
2024/01/19 02:00:20;;;;;;;50.70;28.10;;;;;;;3.04;100.00;98558.27;103973;1273;71410;-55
2024/01/19 02:02:48;;;;;;;52.80;27.80;;;;;;;3.03;100.00;98554.02;104037;1265;59737;-56
2024/01/19 02:05:16;;;;;;;49.90;27.50;;;;;;;3.03;100.00;98555.80;104201;1266;59685;-55
2024/01/19 02:07:43;;;;;;;42.80;23.70;;;;;;;3.03;100.00;98557.06;104109;1265;71860;-56
2024/01/19 02:10:10;;;;;;;40.60;22.90;;;;;;;3.02;100.00;98557.10;103989;1270;64923;-57
2024/01/19 02:12:38;;;;;;;37.90;21.50;;;;;;;3.01;100.00;98558.71;103971;1267;72739;-56
2024/01/19 02:15:06;;;;;;;30.90;18.30;;;;;;;3.02;100.00;98563.13;104277;1266;61049;-57
2024/01/19 02:17:33;;;;;;;35.90;19.40;;;;;;;3.02;100.00;98567.01;104328;1264;59772;-57
2024/01/19 02:20:01;;;;;;;32.10;18.60;;;;;;;3.03;100.00;98566.28;104505;1266;72947;-57
2024/01/19 02:22:28;;;;;;;30.60;18.10;;;;;;;3.05;100.00;98568.68;104544;1263;65780;-56
2024/01/19 02:24:55;;;;;;;31.90;18.90;;;;;;;3.07;100.00;98570.39;104367;1267;71409;-57
2024/01/19 02:27:23;;;;;;;33.60;19.00;;;;;;;3.08;100.00;98569.08;104151;1267;60018;-55
2024/01/19 02:29:50;;;;;;;30.40;18.60;;;;;;;3.10;100.00;98575.42;104655;1259;60190;-58
2024/01/19 02:32:18;;;;;;;27.10;18.50;;;;;;;3.10;100.00;98577.02;105477;1260;73009;-58
2024/01/19 02:34:46;;;;;;;30.30;19.40;;;;;;;3.10;100.00;98583.93;104446;1261;66974;-58
2024/01/19 02:37:13;;;;;;;28.10;18.70;;;;;;;3.09;100.00;98580.77;104875;1262;71185;-58
2024/01/19 02:39:41;;;;;;;29.80;18.10;;;;;;;3.07;100.00;98587.73;104468;1260;59603;-58
2024/01/19 02:42:08;;;;;;;28.70;17.40;;;;;;;3.07;100.00;98583.83;104647;1262;59728;-57
2024/01/19 02:44:36;;;;;;;26.60;16.70;;;;;;;3.07;100.00;98591.09;104441;1259;73103;-55
2024/01/19 02:47:03;;;;;;;18.80;13.40;;;;;;;3.07;100.00;98596.59;104515;1260;66308;-57
2024/01/19 02:49:31;;;;;;;22.50;14.80;;;;;;;3.08;100.00;98595.52;104639;1259;72665;-58
2024/01/19 02:51:58;;;;;;;20.80;14.40;;;;;;;3.10;100.00;98601.47;104826;1262;61893;-58
2024/01/19 02:54:25;;;;;;;22.10;15.40;;;;;;;3.11;100.00;98600.55;104536;1260;59585;-58
2024/01/19 02:56:53;;;;;;;21.40;14.60;;;;;;;3.10;100.00;98605.17;104667;1262;73068;-57
2024/01/19 02:59:20;;;;;;;21.70;15.70;;;;;;;3.10;100.00;98606.77;104764;1260;66845;-57
2024/01/19 03:01:47;;;;;;;25.00;16.40;;;;;;;3.10;100.00;98607.33;104598;1262;73207;-57
2024/01/19 03:04:15;;;;;;;23.40;16.80;;;;;;;3.09;100.00;98610.02;104717;1260;59730;-57
2024/01/19 03:06:42;;;;;;;21.50;15.90;;;;;;;3.07;100.00;98615.55;104686;1264;60064;-57
2024/01/19 03:09:10;;;;;;;23.50;15.20;;;;;;;3.05;100.00;98619.55;104865;1259;71932;-57
2024/01/19 03:11:37;;;;;;;19.50;14.00;;;;;;;3.02;100.00;98617.86;104394;1259;66880;-57
2024/01/19 03:14:04;;;;;;;19.10;12.60;;;;;;;3.00;100.00;98621.30;104601;1260;72737;-56
2024/01/19 03:16:32;;;;;;;16.70;12.70;;;;;;;2.99;100.00;98625.59;104618;1260;61269;-57
2024/01/19 03:19:00;;;;;;;20.40;13.50;;;;;;;2.98;100.00;98633.59;104693;1260;59632;-56
2024/01/19 03:21:28;;;;;;;15.60;12.60;;;;;;;3.00;100.00;98644.01;104988;1263;71813;-56
2024/01/19 03:23:55;;;;;;;16.20;12.20;;;;;;;3.02;100.00;98647.45;104467;1263;66920;-56
2024/01/19 03:26:22;;;;;;;18.00;12.30;;;;;;;3.06;100.00;98651.44;104533;1263;72731;-56
2024/01/19 03:28:50;;;;;;;18.70;13.40;;;;;;;3.09;100.00;98655.38;104779;1259;60547;-56
2024/01/19 03:31:17;;;;;;;17.50;13.30;;;;;;;3.11;100.00;98657.98;104473;1263;59752;-56
2024/01/19 03:33:44;;;;;;;18.10;13.20;;;;;;;3.11;100.00;98660.64;104367;1261;73428;-57
2024/01/19 03:36:12;;;;;;;16.30;11.80;;;;;;;3.09;100.00;98669.91;104630;1263;67059;-56
2024/01/19 03:38:39;;;;;;;15.90;11.10;;;;;;;3.07;100.00;98677.10;104338;1262;72898;-56
2024/01/19 03:41:06;;;;;;;14.90;11.00;;;;;;;3.03;100.00;98678.08;104528;1263;60392;-56
2024/01/19 03:43:33;;;;;;;15.20;11.30;;;;;;;3.03;100.00;98683.60;104619;1257;59997;-56
2024/01/19 03:46:01;;;;;;;13.50;10.20;;;;;;;3.02;100.00;98681.85;104792;1263;73150;-54
2024/01/19 03:48:28;;;;;;;15.50;11.00;;;;;;;3.03;100.00;98688.38;104526;1263;65493;-57
2024/01/19 03:50:55;;;;;;;14.60;10.60;;;;;;;3.05;100.00;98695.06;104833;1260;71466;-57
2024/01/19 03:53:23;;;;;;;16.30;11.20;;;;;;;3.06;100.00;98696.61;104626;1258;59679;-58
2024/01/19 03:55:50;;;;;;;18.10;12.20;;;;;;;3.06;100.00;98702.50;104482;1257;59744;-57
2024/01/19 03:58:17;;;;;;;18.10;13.20;;;;;;;3.04;100.00;98704.67;104538;1260;71855;-59
2024/01/19 04:00:45;;;;;;;14.70;10.70;;;;;;;3.03;100.00;98710.70;104664;1263;65717;-57
2024/01/19 04:03:12;;;;;;;15.40;11.50;;;;;;;3.01;100.00;98718.56;108769;1257;72689;-58
2024/01/19 04:05:40;;;;;;;14.40;10.80;;;;;;;2.97;100.00;98723.66;108589;1257;59768;-56
2024/01/19 04:08:07;;;;;;;16.10;11.20;;;;;;;2.95;100.00;98731.38;107868;1259;60490;-55
2024/01/19 04:10:35;;;;;;;12.90;10.60;;;;;;;2.95;100.00;98740.75;104558;1257;73015;-58
2024/01/19 04:13:02;;;;;;;12.60;9.50;;;;;;;2.97;100.00;98742.66;104503;1257;67025;-55
2024/01/19 04:15:29;;;;;;;11.20;9.00;;;;;;;2.95;100.00;98745.71;104380;1258;73284;-55
2024/01/19 04:17:58;;;;;;;15.80;11.30;;;;;;;2.97;100.00;98756.45;104582;1259;59634;-56
2024/01/19 04:20:26;;;;;;;13.50;9.70;;;;;;;3.02;100.00;98759.83;104489;1264;59741;-57
2024/01/19 04:22:53;;;;;;;14.40;10.10;;;;;;;3.05;100.00;98767.20;104559;1263;72229;-57
2024/01/19 04:25:20;;;;;;;15.70;11.10;;;;;;;3.05;100.00;98772.69;104581;1258;65496;-56
2024/01/19 04:27:48;;;;;;;14.00;9.80;;;;;;;3.02;100.00;98780.93;104618;1257;73126;-56
2024/01/19 04:30:15;;;;;;;11.90;9.10;;;;;;;2.98;100.00;98781.93;104782;1258;61632;-56
2024/01/19 04:32:43;;;;;;;13.00;9.00;;;;;;;2.96;100.00;98783.80;105483;1257;61428;-56
2024/01/19 04:35:11;;;;;;;15.00;9.60;;;;;;;2.94;100.00;98793.59;104605;1263;73566;-57
2024/01/19 04:37:38;;;;;;;9.00;7.20;;;;;;;2.94;100.00;98797.86;104469;1263;67354;-56
2024/01/19 04:40:05;;;;;;;7.90;6.30;;;;;;;2.94;100.00;98805.12;104598;1259;71509;-58
2024/01/19 04:42:33;;;;;;;8.40;6.00;;;;;;;2.95;100.00;98813.94;104784;1257;60493;-56
2024/01/19 04:45:00;;;;;;;6.60;5.60;;;;;;;2.98;100.00;98819.70;104638;1263;59778;-57
2024/01/19 04:47:30;;;;;;;5.80;4.20;;;;;;;2.98;100.00;98823.77;104796;1263;71661;-57
2024/01/19 04:49:57;;;;;;;6.40;5.60;;;;;;;2.96;100.00;98825.98;104477;1258;65537;-57
2024/01/19 04:52:25;;;;;;;4.80;4.30;;;;;;;2.92;100.00;98833.89;104671;1262;73145;-57
2024/01/19 04:54:52;;;;;;;3.70;3.40;;;;;;;2.88;100.00;98840.76;104687;1256;59922;-57
2024/01/19 04:57:20;;;;;;;3.30;2.90;;;;;;;2.82;100.00;98841.65;104839;1258;59713;-56
2024/01/19 04:59:47;;;;;;;3.40;3.00;;;;;;;2.78;100.00;98845.52;104714;1259;72828;-58
2024/01/19 05:02:15;;;;;;;2.10;1.80;;;;;;;2.77;100.00;98846.61;105037;1258;65967;-57
2024/01/19 05:04:45;;;;;;;1.50;1.30;;;;;;;2.76;100.00;98852.84;104998;1259;72689;-58
2024/01/19 05:07:13;;;;;;;1.50;1.40;;;;;;;2.76;100.00;98858.86;104967;1258;61860;-58
2024/01/19 05:09:40;;;;;;;2.20;1.30;;;;;;;2.77;100.00;98865.37;104644;1256;60528;-58
2024/01/19 05:12:07;;;;;;;1.50;1.30;;;;;;;2.77;100.00;98870.34;104829;1254;72713;-56
2024/01/19 05:14:35;;;;;;;1.40;1.20;;;;;;;2.77;100.00;98877.45;104852;1254;67452;-57
2024/01/19 05:17:02;;;;;;;1.50;1.40;;;;;;;2.77;100.00;98889.13;105226;1257;72444;-58
2024/01/19 05:19:30;;;;;;;2.30;1.50;;;;;;;2.73;100.00;98898.27;104916;1256;60549;-58
2024/01/19 05:21:57;;;;;;;1.40;1.30;;;;;;;2.68;100.00;98903.03;104865;1254;60943;-57
2024/01/19 05:24:25;;;;;;;1.30;1.20;;;;;;;2.64;100.00;98910.59;104924;1259;73900;-56
2024/01/19 05:26:52;;;;;;;2.20;1.80;;;;;;;2.63;100.00;98918.60;104779;1256;67225;-57
2024/01/19 05:29:19;;;;;;;1.70;1.20;;;;;;;2.63;100.00;98927.98;104944;1254;73221;-59
2024/01/19 05:31:47;;;;;;;1.50;1.30;;;;;;;2.64;100.00;98937.16;105009;1258;60513;-57
2024/01/19 05:34:14;;;;;;;1.60;1.00;;;;;;;2.64;100.00;98940.36;105052;1258;60441;-57
2024/01/19 05:36:42;;;;;;;2.00;1.10;;;;;;;2.62;100.00;98946.98;104755;1258;76290;-59
2024/01/19 05:39:09;;;;;;;1.50;1.10;;;;;;;2.58;100.00;98959.14;104741;1257;67080;-53
2024/01/19 05:41:37;;;;;;;1.70;1.10;;;;;;;2.52;100.00;98969.58;104901;1254;71520;-58
2024/01/19 05:44:04;;;;;;;1.30;0.90;;;;;;;2.44;100.00;98970.16;105413;1258;60496;-56
2024/01/19 05:46:32;;;;;;;0.90;0.80;;;;;;;2.36;100.00;98970.03;104871;1255;60490;-57
2024/01/19 05:48:59;;;;;;;0.90;0.70;;;;;;;2.31;100.00;98976.36;105019;1254;72336;-56
2024/01/19 05:51:27;;;;;;;1.00;0.80;;;;;;;2.29;100.00;98979.62;104958;1254;64849;-56
2024/01/19 05:53:54;;;;;;;1.50;1.10;;;;;;;2.28;100.00;98986.54;104922;1257;71329;-57
2024/01/19 05:56:22;;;;;;;1.00;0.80;;;;;;;2.29;100.00;98995.55;104745;1255;61454;-55
2024/01/19 05:58:49;;;;;;;1.40;1.20;;;;;;;2.30;100.00;99004.39;104874;1256;60522;-58
2024/01/19 06:01:17;;;;;;;1.40;1.00;;;;;;;2.27;100.00;99013.13;104849;1254;72621;-58
2024/01/19 06:03:44;;;;;;;1.20;1.00;;;;;;;2.20;100.00;99018.27;104838;1254;65697;-57
2024/01/19 06:06:11;;;;;;;1.20;1.00;;;;;;;2.13;100.00;99021.11;104919;1257;73140;-57
2024/01/19 06:08:39;;;;;;;1.40;1.20;;;;;;;2.08;100.00;99030.77;105093;1256;60607;-54
2024/01/19 06:11:06;;;;;;;1.40;1.20;;;;;;;2.04;100.00;99039.59;104883;1254;60627;-56
2024/01/19 06:13:34;;;;;;;1.60;1.10;;;;;;;2.01;100.00;99043.70;104934;1255;74100;-56
2024/01/19 06:16:01;;;;;;;1.50;1.20;;;;;;;2.02;100.00;99046.00;104984;1255;65510;-55
2024/01/19 06:18:29;;;;;;;1.20;1.10;;;;;;;2.04;100.00;99049.81;105005;1256;71467;-58
2024/01/19 06:21:00;;;;;;;1.30;1.20;;;;;;;2.08;100.00;99048.14;104804;1254;61523;-56
2024/01/19 06:23:28;;;;;;;1.50;1.30;;;;;;;2.09;100.00;99051.65;104955;1254;60406;-57
2024/01/19 06:25:55;;;;;;;1.50;1.30;;;;;;;2.09;100.00;99056.96;105253;1258;74220;-56
2024/01/19 06:28:23;;;;;;;2.40;2.10;;;;;;;2.05;100.00;99057.05;105046;1258;65873;-58
2024/01/19 06:30:50;;;;;;;2.80;2.10;;;;;;;2.00;100.00;99067.43;104953;1254;71524;-57
2024/01/19 06:33:17;;;;;;;2.10;1.80;;;;;;;1.97;100.00;99068.58;104886;1256;65335;-57
2024/01/19 06:35:46;;;;;;;2.50;2.20;;;;;;;1.93;100.00;99070.98;105077;1254;60549;-58
2024/01/19 06:38:13;;;;;;;2.70;1.80;;;;;;;1.93;100.00;99072.93;105109;1254;71790;-58
2024/01/19 06:40:40;;;;;;;2.70;2.50;;;;;;;1.93;100.00;99077.17;104683;1259;66709;-57
2024/01/19 06:43:08;;;;;;;3.50;3.20;;;;;;;1.94;100.00;99084.41;104857;1253;73656;-56
2024/01/19 06:45:35;;;;;;;4.30;3.70;;;;;;;1.94;100.00;99091.13;104964;1258;60415;-56
2024/01/19 06:48:03;;;;;;;3.70;3.40;;;;;;;1.90;100.00;99099.52;104664;1257;61401;-58
2024/01/19 06:50:30;;;;;;;2.40;2.20;;;;;;;1.85;100.00;99111.33;104938;1259;74352;-56
2024/01/19 06:52:59;;;;;;;3.00;2.20;;;;;;;1.79;100.00;99113.23;104900;1254;65838;-59
2024/01/19 06:55:27;;;;;;;2.70;2.20;;;;;;;1.75;100.00;99109.10;104967;1254;71822;-55
2024/01/19 06:57:55;;;;;;;3.70;2.10;;;;;;;1.72;100.00;99106.31;104918;1254;60531;-60
2024/01/19 07:00:22;;;;;;;2.00;1.70;;;;;;;1.69;100.00;99110.31;104872;1256;60743;-58
2024/01/19 07:02:52;;;;;;;3.40;2.40;;;;;;;1.68;100.00;99120.59;109112;1254;74334;-61
2024/01/19 07:05:20;;;;;;;3.20;2.70;;;;;;;1.69;100.00;99125.17;108996;1254;67851;-57
2024/01/19 07:07:47;;;;;;;4.00;3.30;;;;;;;1.71;100.00;99130.92;107857;1255;71398;-59
2024/01/19 07:10:15;;;;;;;3.30;2.70;;;;;;;1.74;100.00;99136.18;104984;1253;60464;-56
2024/01/19 07:12:42;;;;;;;5.40;3.70;;;;;;;1.72;100.00;99143.29;105035;1257;60691;-56
2024/01/19 07:15:09;;;;;;;3.90;3.30;;;;;;;1.70;100.00;99146.17;104929;1258;72420;-56
2024/01/19 07:17:37;;;;;;;5.40;3.00;;;;;;;1.66;100.00;99150.51;109005;1253;65675;-58
2024/01/19 07:20:05;;;;;;;3.80;2.30;;;;;;;1.66;100.00;99161.30;108977;1253;72862;-57
2024/01/19 07:22:33;;;;;;;4.10;2.70;;;;;;;1.67;100.00;99159.52;108987;1253;59983;-58
2024/01/19 07:25:00;;;;;;;4.20;2.80;;;;;;;1.67;100.00;99158.80;109053;1253;58834;-59
2024/01/19 07:27:28;;;;;;;4.90;3.20;;;;;;;1.69;100.00;99162.14;109015;1253;76063;-59
2024/01/19 07:29:55;;;;;;;4.70;3.60;;;;;;;1.69;100.00;99168.13;105531;1253;67345;-57
2024/01/19 07:32:24;;;;;;;6.40;4.30;;;;;;;1.66;100.00;99173.52;105077;1255;71581;-57
2024/01/19 07:34:52;;;;;;;5.70;4.30;;;;;;;1.65;100.00;99180.77;105531;1254;60554;-56
2024/01/19 07:37:20;;;;;;;5.10;4.20;;;;;;;1.64;100.00;99187.86;105695;1253;60419;-58
2024/01/19 07:39:47;;;;;;;6.30;4.50;;;;;;;1.64;100.00;99192.98;105042;1257;74767;-58
2024/01/19 07:42:14;;;;;;;6.50;5.20;;;;;;;1.63;100.00;99195.14;104746;1253;67446;-55
2024/01/19 07:44:42;;;;;;;5.70;4.30;;;;;;;1.62;100.00;99193.77;104915;1253;73080;-57
2024/01/19 07:47:09;;;;;;;7.50;5.00;;;;;;;1.60;100.00;99201.05;104761;1259;60494;-58
2024/01/19 07:49:36;;;;;;;6.70;4.30;;;;;;;1.57;100.00;99208.70;104897;1253;62183;-56
2024/01/19 07:52:05;;;;;;;5.60;4.20;;;;;;;1.50;100.00;99212.21;104754;1255;74188;-58
2024/01/19 07:54:32;;;;;;;4.80;3.20;;;;;;;1.45;100.00;99217.09;105231;1253;67143;-57
2024/01/19 07:57:00;;;;;;;4.90;3.70;;;;;;;1.40;100.00;99218.61;105355;1254;72767;-59
2024/01/19 07:59:27;;;;;;;6.90;5.40;;;;;;;1.35;100.00;99220.30;104959;1253;60937;-58
2024/01/19 08:01:54;;;;;;;6.20;4.40;;;;;;;1.34;100.00;99219.80;105035;1258;60591;-59
2024/01/19 08:04:22;;;;;;;7.60;5.00;;;;;;;1.37;100.00;99221.49;105013;1258;74006;-58
2024/01/19 08:06:49;;;;;;;7.40;5.50;;;;;;;1.41;100.00;99227.97;105050;1254;65843;-58
2024/01/19 08:09:17;;;;;;;8.20;6.30;;;;;;;1.44;100.00;99229.51;104915;1253;72710;-58
2024/01/19 08:11:44;;;;;;;9.40;6.20;;;;;;;1.45;100.00;99237.08;105024;1259;60412;-59
2024/01/19 08:14:11;;;;;;;8.00;6.40;;;;;;;1.42;100.00;99246.14;105283;1257;60492;-58
2024/01/19 08:16:42;;;;;;;8.10;5.40;;;;;;;1.39;100.00;99248.69;104914;1253;74811;-58
2024/01/19 08:19:10;;;;;;;7.90;5.80;;;;;;;1.34;100.00;99251.09;104796;1258;66315;-56
2024/01/19 08:21:42;;;;;;;7.50;6.10;;;;;;;1.29;100.00;99254.70;105479;1258;71780;-59
2024/01/19 08:24:09;;;;;;;8.00;5.40;;;;;;;1.29;100.00;99258.59;105132;1253;60910;-57
2024/01/19 08:26:37;;;;;;;11.40;6.20;;;;;;;1.32;100.00;99259.95;105079;1253;60145;-58
2024/01/19 08:29:04;;;;;;;6.10;5.10;;;;;;;1.32;100.00;99262.96;105227;1253;72841;-57
2024/01/19 08:31:31;;;;;;;10.90;5.90;;;;;;;1.27;100.00;99271.36;104984;1253;65648;-56
2024/01/19 08:33:59;;;;;;;12.00;8.20;;;;;;;1.20;100.00;99273.09;105201;1258;70444;-59
2024/01/19 08:36:26;;;;;;;12.10;7.90;;;;;;;1.16;100.00;99274.58;105039;1255;60554;-59
2024/01/19 08:38:53;;;;;;;9.80;5.90;;;;;;;1.11;100.00;99279.58;105049;1254;60660;-58
2024/01/19 08:41:23;;;;;;;8.20;5.30;;;;;;;1.12;100.00;99280.45;104769;1258;73954;-59
2024/01/19 08:43:51;;;;;;;5.70;4.40;;;;;;;1.16;100.00;99283.93;104891;1259;66121;-58
2024/01/19 08:46:18;;;;;;;7.30;5.50;;;;;;;1.19;100.00;99284.42;104942;1253;75078;-58
2024/01/19 08:48:47;;;;;;;7.20;5.40;;;;;;;1.24;100.00;99288.74;105168;1253;60520;-59
2024/01/19 08:51:20;;;;;;;8.90;6.80;;;;;;;1.30;100.00;99292.88;105027;1253;60499;-58
2024/01/19 08:53:48;;;;;;;10.50;7.00;;;;;;;1.33;100.00;99286.63;105418;1253;72951;-60
2024/01/19 08:56:20;;;;;;;12.30;6.90;;;;;;;1.36;100.00;99293.64;104952;1258;65695;-59
2024/01/19 08:58:48;;;;;;;19.80;10.10;;;;;;;1.36;100.00;99308.13;105066;1256;74634;-58
2024/01/19 09:01:19;;;;;;;19.80;10.30;;;;;;;1.34;100.00;99321.79;105054;1253;60636;-58
2024/01/19 09:03:46;;;;;;;41.80;20.00;;;;;;;1.33;100.00;99336.13;104951;1255;60636;-58
2024/01/19 09:06:13;;;;;;;17.00;8.30;;;;;;;1.32;100.00;99343.21;105604;1256;73396;-57
2024/01/19 09:08:42;;;;;;;13.50;8.10;;;;;;;1.32;100.00;99352.41;107816;1254;66290;-58
2024/01/19 09:11:10;;;;;;;11.50;7.60;;;;;;;1.32;100.00;99357.17;104978;1253;71459;-53
2024/01/19 09:13:38;;;;;;;9.40;7.20;;;;;;;1.33;100.00;99365.65;104930;1256;60842;-58
2024/01/19 09:16:09;;;;;;;9.00;6.70;;;;;;;1.30;100.00;99373.64;104996;1259;60385;-58
2024/01/19 09:18:36;;;;;;;10.70;6.30;;;;;;;1.26;100.00;99373.73;105109;1258;72555;-57
2024/01/19 09:21:04;;;;;;;11.20;6.70;;;;;;;1.25;100.00;99371.98;105599;1253;66204;-58
2024/01/19 09:23:32;;;;;;;10.80;7.10;;;;;;;1.27;100.00;99377.26;104913;1254;73185;-57
2024/01/19 09:25:59;;;;;;;10.00;6.80;;;;;;;1.29;100.00;99378.80;105084;1254;60447;-58
2024/01/19 09:28:27;;;;;;;8.60;6.00;;;;;;;1.32;100.00;99382.45;106138;1253;60521;-58
2024/01/19 09:30:54;;;;;;;8.90;5.90;;;;;;;1.32;100.00;99378.39;104886;1258;74508;-60
2024/01/19 09:33:21;;;;;;;11.00;7.10;;;;;;;1.28;100.00;99380.05;105027;1258;69789;-58
2024/01/19 09:35:48;;;;;;;10.40;6.90;;;;;;;1.26;100.00;99385.39;105024;1253;75004;-58
2024/01/19 09:38:16;;;;;;;8.20;5.40;;;;;;;1.29;100.00;99389.39;106179;1253;60341;-58
2024/01/19 09:40:45;;;;;;;9.60;6.50;;;;;;;1.34;100.00;99392.68;104867;1253;60633;-58
2024/01/19 09:43:13;;;;;;;10.90;7.50;;;;;;;1.37;100.00;99398.44;105443;1256;72096;-57
2024/01/19 09:45:43;;;;;;;9.60;6.90;;;;;;;1.41;100.00;99407.23;104755;1253;65796;-58
2024/01/19 09:48:23;;;;;;;9.70;6.30;;;;;;;1.41;100.00;99407.23;105059;1253;72841;-58
2024/01/19 09:50:52;;;;;;;13.30;8.00;;;;;;;1.38;100.00;99402.67;109112;1253;59339;-58
2024/01/19 09:53:26;;;;;;;10.40;6.50;;;;;;;1.37;100.00;99400.58;108968;1253;59083;-59
2024/01/19 09:55:54;;;;;;;;;;;;;;;1.37;100.00;99397.21;108935;1253;73900;-59
2024/01/19 09:58:21;;;;;;;12.10;7.90;;;;;;;1.39;100.00;99400.54;109165;1253;65630;-59
2024/01/19 10:00:50;;;;;;;12.80;6.90;;;;;;;1.44;100.00;99408.05;109021;1253;71421;-59
2024/01/19 10:03:18;;;;;;;11.00;7.60;;;;;;;1.49;100.00;99414.52;108209;1253;58364;-57
2024/01/19 10:05:48;;;;;;;9.90;6.90;;;;;;;1.47;100.00;99416.30;104884;1253;60744;-58
2024/01/19 10:08:16;;;;;;;12.20;7.20;;;;;;;1.46;100.00;99413.48;105632;1253;72646;-59
2024/01/19 10:10:44;;;;;;;9.70;6.80;;;;;;;1.44;100.00;99410.37;104825;1253;68826;-60
2024/01/19 10:13:11;;;;;;;9.80;6.50;;;;;;;1.40;100.00;99418.73;108942;1254;71335;-57
2024/01/19 10:15:38;;;;;;;7.40;5.20;;;;;;;1.40;100.00;99429.17;105118;1253;60518;-58
2024/01/19 10:18:06;;;;;;;9.00;6.00;;;;;;;1.41;100.00;99430.58;104995;1253;60519;-58
2024/01/19 10:20:33;;;;;;;7.50;5.40;;;;;;;1.46;100.00;99430.65;109011;1253;77740;-59
2024/01/19 10:23:21;;;;;;;11.60;6.50;;;;;;;1.55;100.00;99444.67;108738;1253;65915;-59
2024/01/19 10:25:49;;;;;;;8.70;6.30;;;;;;;1.62;100.00;99446.84;106433;1253;73265;-58
2024/01/19 10:28:35;;;;;;;9.20;6.50;;;;;;;1.63;100.00;99443.10;106418;1253;60584;-58
2024/01/19 10:31:14;;;;;;;9.30;5.70;;;;;;;1.60;100.00;99447.77;107567;1258;60775;-58
2024/01/19 10:33:48;;;;;;;11.30;6.70;;;;;;;1.54;100.00;99449.10;105966;1253;72673;-58
2024/01/19 10:36:16;;;;;;;16.20;8.30;;;;;;;1.48;100.00;99449.55;108157;1256;67093;-57
2024/01/19 10:38:44;;;;;;;12.50;7.40;;;;;;;1.43;100.00;99446.45;105244;1256;71460;-53
2024/01/19 10:41:15;;;;;;;10.10;6.00;;;;;;;1.44;100.00;99451.74;105083;1256;62647;-56
2024/01/19 10:43:43;;;;;;;8.80;6.10;;;;;;;1.49;100.00;99457.66;104884;1254;61440;-56
2024/01/19 10:46:26;;;;;;;11.40;5.90;;;;;;;1.57;100.00;99463.90;108921;1258;73862;-57
2024/01/19 10:48:53;;;;;;;8.40;4.90;;;;;;;1.66;100.00;99484.45;107774;1260;67860;-57
2024/01/19 10:51:21;;;;;;;10.40;6.00;;;;;;;1.72;100.00;99480.27;105079;1253;71837;-58
2024/01/19 10:53:49;;;;;;;8.90;5.70;;;;;;;1.77;100.00;99485.51;104876;1253;60442;-56
2024/01/19 10:56:18;;;;;;;7.10;4.50;;;;;;;1.78;100.00;99482.30;109063;1253;58942;-57
2024/01/19 10:58:46;;;;;;;11.90;6.30;;;;;;;1.72;100.00;99483.98;107115;1258;72690;-58
2024/01/19 11:01:14;;;;;;;21.20;8.80;;;;;;;1.64;100.00;99491.36;104716;1259;65827;-57
2024/01/19 11:03:45;;;;;;;7.60;5.40;;;;;;;1.59;100.00;99501.73;105052;1258;72838;-58
2024/01/19 11:06:12;;;;;;;7.50;5.20;;;;;;;1.49;100.00;99501.70;105458;1253;60095;-56
2024/01/19 11:08:40;;;;;;;7.90;4.40;;;;;;;1.41;100.00;99503.41;105153;1258;60588;-57
2024/01/19 11:11:09;;;;;;;7.40;4.20;;;;;;;1.39;100.00;99507.33;104754;1253;72778;-57
2024/01/19 11:13:38;;;;;;;4.50;3.10;;;;;;;1.39;100.00;99507.86;104943;1253;70964;-57
2024/01/19 11:16:10;;;;;;;7.00;4.90;;;;;;;1.40;100.00;99507.15;107640;1253;71495;-57
2024/01/19 11:18:38;;;;;;;5.90;3.40;;;;;;;1.41;100.00;99514.73;105314;1258;60632;-58
2024/01/19 11:21:06;;;;;;;6.00;3.70;;;;;;;1.41;100.00;99519.33;106490;1256;59157;-59